PWSweather.com
Personal Weather Stations
Station Observations
AF1HS
North Haven, CT 06473

North Haven, CT 06473

Lat: 41.3733, Lon: -72.8413

Elevation: 85.3

Station Type: Oregon Scientific WMR968

http://www.af1hs.com/wx/index.php

High Low Average
Temperature 31.9°F-0.1°C 19.4°F-7.0°C 22.4°F-5.3°C
Dew Point 15.6°F-9.1°C 2.1°F-16.6°C 6.4°F-14.2°C
Winds 4.6 mph 7.4 kmh Calm Calm 2.0 mph WSW3.2 kmh WSW
Wind Gusts 8.1 mph13.0 kmh -- 4.0 mph6.4 kmh
Humidity 63% 42% 50%
Pressure 30.37 in1028.4 mb 30.28 in1025.4 mb -
Precipitation 0.00 in0.0 mm - -
Hour Temp Dew Point Humidity Winds Wind Gusts Pressure Precip Precip Rate Daily Precip Total
12:00 AM 21.9°F-5.6°C 3.3°F-15.9°C 44% 3.5 mph NNW5.6 kmh NNW 3.5 mph5.6 kmh 30.31 in1026.4 mb - 0.00 in0.0 mm 0.00 in0.0 mm
12:10 AM 21.9°F-5.6°C 4.7°F-15.2°C 47% 3.5 mph NNW5.6 kmh NNW 3.5 mph5.6 kmh 30.31 in1026.4 mb - 0.00 in0.0 mm 0.00 in0.0 mm
12:20 AM 21.9°F-5.6°C 3.3°F-15.9°C 44% 4.6 mph N7.4 kmh N 5.8 mph9.3 kmh 30.31 in1026.4 mb - 0.00 in0.0 mm 0.00 in0.0 mm
12:30 AM 21.7°F-5.7°C 3.1°F-16.1°C 44% 4.6 mph NNW7.4 kmh NNW 5.8 mph9.3 kmh 30.31 in1026.4 mb - 0.00 in0.0 mm 0.00 in0.0 mm
12:40 AM 21.7°F-5.7°C 3.1°F-16.1°C 44% 2.3 mph NNE3.7 kmh NNE 3.5 mph5.6 kmh 30.28 in1025.4 mb - 0.00 in0.0 mm 0.00 in0.0 mm
12:50 AM 21.7°F-5.7°C 3.1°F-16.1°C 44% 1.2 mph N1.9 kmh N 3.5 mph5.6 kmh 30.29 in1025.7 mb - 0.00 in0.0 mm 0.00 in0.0 mm
01:00 AM 21.9°F-5.6°C 3.3°F-15.9°C 44% Calm Calm -- 30.31 in1026.4 mb - 0.00 in0.0 mm 0.00 in0.0 mm
01:10 AM 21.9°F-5.6°C 3.3°F-15.9°C 44% Calm Calm 3.5 mph5.6 kmh 30.31 in1026.4 mb - 0.00 in0.0 mm 0.00 in0.0 mm
01:20 AM 21.9°F-5.6°C 3.3°F-15.9°C 44% 4.6 mph N7.4 kmh N 5.8 mph9.3 kmh 30.31 in1026.4 mb - 0.00 in0.0 mm 0.00 in0.0 mm
01:30 AM 21.7°F-5.7°C 3.1°F-16.1°C 44% 3.5 mph N5.6 kmh N 4.6 mph7.4 kmh 30.31 in1026.4 mb - 0.00 in0.0 mm 0.00 in0.0 mm
01:40 AM 21.7°F-5.7°C 3.1°F-16.1°C 44% 3.5 mph N5.6 kmh N 5.8 mph9.3 kmh 30.28 in1025.4 mb - 0.00 in0.0 mm 0.00 in0.0 mm
01:50 AM 21.7°F-5.7°C 3.1°F-16.1°C 44% Calm Calm 8.1 mph13.0 kmh 30.28 in1025.4 mb - 0.00 in0.0 mm 0.00 in0.0 mm
02:00 AM 21.7°F-5.7°C 3.1°F-16.1°C 44% 3.5 mph NNE5.6 kmh NNE 3.5 mph5.6 kmh 30.28 in1025.4 mb - 0.00 in0.0 mm 0.00 in0.0 mm
02:10 AM 21.9°F-5.6°C 3.3°F-15.9°C 44% 2.3 mph N3.7 kmh N 3.5 mph5.6 kmh 30.31 in1026.4 mb - 0.00 in0.0 mm 0.00 in0.0 mm
02:20 AM 21.9°F-5.6°C 3.3°F-15.9°C 44% 2.3 mph NNW3.7 kmh NNW 3.5 mph5.6 kmh 30.31 in1026.4 mb - 0.00 in0.0 mm 0.00 in0.0 mm
02:30 AM 21.8°F-5.7°C 3.2°F-16.0°C 44% 3.5 mph NNW5.6 kmh NNW 5.8 mph9.3 kmh 30.31 in1026.4 mb - 0.00 in0.0 mm 0.00 in0.0 mm
02:40 AM 21.7°F-5.7°C 2.1°F-16.6°C 42% 1.2 mph NNW1.9 kmh NNW 2.3 mph3.7 kmh 30.31 in1026.4 mb - 0.00 in0.0 mm 0.00 in0.0 mm
02:50 AM 21.9°F-5.6°C 3.3°F-15.9°C 44% Calm Calm -- 30.31 in1026.4 mb - 0.00 in0.0 mm 0.00 in0.0 mm
03:00 AM 21.9°F-5.6°C 3.3°F-15.9°C 44% 2.3 mph NNW3.7 kmh NNW 3.5 mph5.6 kmh 30.31 in1026.4 mb - 0.00 in0.0 mm 0.00 in0.0 mm
03:10 AM 21.9°F-5.6°C 3.3°F-15.9°C 44% Calm Calm 4.6 mph7.4 kmh 30.31 in1026.4 mb - 0.00 in0.0 mm 0.00 in0.0 mm
03:20 AM 21.9°F-5.6°C 2.3°F-16.5°C 42% 2.3 mph NW3.7 kmh NW 3.5 mph5.6 kmh 30.31 in1026.4 mb - 0.00 in0.0 mm 0.00 in0.0 mm
03:30 AM 21.9°F-5.6°C 2.3°F-16.5°C 42% 2.3 mph NW3.7 kmh NW 4.6 mph7.4 kmh 30.31 in1026.4 mb - 0.00 in0.0 mm 0.00 in0.0 mm
03:40 AM 21.7°F-5.7°C 2.1°F-16.6°C 42% 4.6 mph NNE7.4 kmh NNE 5.8 mph9.3 kmh 30.31 in1026.4 mb - 0.00 in0.0 mm 0.00 in0.0 mm
03:50 AM 21.7°F-5.7°C 2.1°F-16.6°C 42% 1.2 mph NNW1.9 kmh NNW 2.3 mph3.7 kmh 30.31 in1026.4 mb - 0.00 in0.0 mm 0.00 in0.0 mm
04:00 AM 21.9°F-5.6°C 2.3°F-16.5°C 42% 1.2 mph NNW1.9 kmh NNW 3.5 mph5.6 kmh 30.31 in1026.4 mb - 0.00 in0.0 mm 0.00 in0.0 mm
04:10 AM 22.1°F-5.5°C 2.5°F-16.4°C 42% 1.2 mph NNW1.9 kmh NNW 3.5 mph5.6 kmh 30.31 in1026.4 mb - 0.00 in0.0 mm 0.00 in0.0 mm
04:20 AM 21.9°F-5.6°C 2.3°F-16.5°C 42% 2.3 mph NNW3.7 kmh NNW 3.5 mph5.6 kmh 30.31 in1026.4 mb - 0.00 in0.0 mm 0.00 in0.0 mm
04:30 AM 21.7°F-5.7°C 2.1°F-16.6°C 42% 2.3 mph N3.7 kmh N 3.5 mph5.6 kmh 30.31 in1026.4 mb - 0.00 in0.0 mm 0.00 in0.0 mm
04:40 AM 21.9°F-5.6°C 2.3°F-16.5°C 42% 1.2 mph N1.9 kmh N 2.3 mph3.7 kmh 30.31 in1026.4 mb - 0.00 in0.0 mm 0.00 in0.0 mm
04:50 AM 21.9°F-5.6°C 2.3°F-16.5°C 42% 1.2 mph N1.9 kmh N 2.3 mph3.7 kmh 30.31 in1026.4 mb - 0.00 in0.0 mm 0.00 in0.0 mm
05:00 AM 21.9°F-5.6°C 2.3°F-16.5°C 42% Calm Calm -- 30.31 in1026.4 mb - 0.00 in0.0 mm 0.00 in0.0 mm
05:10 AM 22.1°F-5.5°C 2.5°F-16.4°C 42% 2.3 mph N3.7 kmh N 3.5 mph5.6 kmh 30.34 in1027.4 mb - 0.00 in0.0 mm 0.00 in0.0 mm
05:20 AM 22.1°F-5.5°C 2.5°F-16.4°C 42% 3.5 mph NNW5.6 kmh NNW 5.8 mph9.3 kmh 30.34 in1027.4 mb - 0.00 in0.0 mm 0.00 in0.0 mm
05:30 AM 22.1°F-5.5°C 3.5°F-15.8°C 44% 3.5 mph NW5.6 kmh NW 5.8 mph9.3 kmh 30.34 in1027.4 mb - 0.00 in0.0 mm 0.00 in0.0 mm
05:40 AM 21.6°F-5.8°C 4.5°F-15.3°C 47% 3.5 mph N5.6 kmh N 3.5 mph5.6 kmh 30.34 in1027.4 mb - 0.00 in0.0 mm 0.00 in0.0 mm
05:50 AM 21.0°F-6.1°C 5.3°F-14.8°C 50% Calm Calm -- 30.34 in1027.4 mb - 0.00 in0.0 mm 0.00 in0.0 mm
06:00 AM 21.2°F-6.0°C 5.4°F-14.8°C 50% Calm Calm -- 30.34 in1027.4 mb - 0.00 in0.0 mm 0.00 in0.0 mm
06:10 AM 20.7°F-6.3°C 5.4°F-14.8°C 51% Calm Calm 3.5 mph5.6 kmh 30.37 in1028.4 mb - 0.00 in0.0 mm 0.00 in0.0 mm
06:20 AM 20.3°F-6.5°C 5.9°F-14.5°C 53% 3.5 mph NW5.6 kmh NW 4.6 mph7.4 kmh 30.37 in1028.4 mb - 0.00 in0.0 mm 0.00 in0.0 mm
06:30 AM 19.9°F-6.7°C 6.7°F-14.1°C 56% 3.5 mph NW5.6 kmh NW 4.6 mph7.4 kmh 30.37 in1028.4 mb - 0.00 in0.0 mm 0.00 in0.0 mm
06:40 AM 19.6°F-6.9°C 7.9°F-13.4°C 60% 3.5 mph NW5.6 kmh NW 3.5 mph5.6 kmh 30.37 in1028.4 mb - 0.00 in0.0 mm 0.00 in0.0 mm
06:50 AM 19.4°F-7.0°C 8.1°F-13.3°C 61% Calm Calm 3.5 mph5.6 kmh 30.37 in1028.4 mb - 0.00 in0.0 mm 0.00 in0.0 mm
07:00 AM 19.4°F-7.0°C 8.5°F-13.1°C 62% 2.3 mph NW3.7 kmh NW 3.5 mph5.6 kmh 30.37 in1028.4 mb - 0.00 in0.0 mm 0.00 in0.0 mm
07:10 AM 19.7°F-6.8°C 8.8°F-12.9°C 62% Calm Calm 2.3 mph3.7 kmh 30.37 in1028.4 mb - 0.00 in0.0 mm 0.00 in0.0 mm
07:20 AM 20.1°F-6.6°C 9.2°F-12.7°C 62% 3.5 mph NW5.6 kmh NW 5.8 mph9.3 kmh 30.37 in1028.4 mb - 0.00 in0.0 mm 0.00 in0.0 mm
07:30 AM 20.3°F-6.5°C 9.3°F-12.6°C 62% 2.3 mph NNW3.7 kmh NNW 3.5 mph5.6 kmh 30.37 in1028.4 mb - 0.00 in0.0 mm 0.00 in0.0 mm
07:40 AM 20.5°F-6.4°C 9.9°F-12.3°C 63% 2.3 mph NNW3.7 kmh NNW 2.3 mph3.7 kmh 30.37 in1028.4 mb - 0.00 in0.0 mm 0.00 in0.0 mm
07:50 AM 20.9°F-6.2°C 10.2°F-12.1°C 63% 3.5 mph NW5.6 kmh NW 5.8 mph9.3 kmh 30.37 in1028.4 mb - 0.00 in0.0 mm 0.00 in0.0 mm
08:00 AM 21.2°F-6.0°C 10.6°F-11.9°C 63% 3.5 mph N5.6 kmh N 3.5 mph5.6 kmh 30.37 in1028.4 mb - 0.00 in0.0 mm 0.00 in0.0 mm
08:10 AM 21.2°F-6.0°C 10.2°F-12.1°C 62% 2.3 mph N3.7 kmh N 5.8 mph9.3 kmh 30.37 in1028.4 mb - 0.00 in0.0 mm 0.00 in0.0 mm
08:20 AM 21.6°F-5.8°C 10.5°F-11.9°C 62% 1.2 mph NNW1.9 kmh NNW 3.5 mph5.6 kmh 30.37 in1028.4 mb - 0.00 in0.0 mm 0.00 in0.0 mm
08:30 AM 21.9°F-5.6°C 10.5°F-11.9°C 61% 2.3 mph NNW3.7 kmh NNW 5.8 mph9.3 kmh 30.37 in1028.4 mb - 0.00 in0.0 mm 0.00 in0.0 mm
08:40 AM 22.1°F-5.5°C 10.7°F-11.8°C 61% 3.5 mph N5.6 kmh N 3.5 mph5.6 kmh 30.37 in1028.4 mb - 0.00 in0.0 mm 0.00 in0.0 mm
08:50 AM 22.8°F-5.1°C 11.0°F-11.7°C 60% 3.5 mph N5.6 kmh N 5.8 mph9.3 kmh 30.37 in1028.4 mb - 0.00 in0.0 mm 0.00 in0.0 mm
09:00 AM 23.4°F-4.8°C 11.6°F-11.3°C 60% 2.3 mph N3.7 kmh N 3.5 mph5.6 kmh 30.37 in1028.4 mb - 0.00 in0.0 mm 0.00 in0.0 mm
09:10 AM 24.3°F-4.3°C 12.0°F-11.1°C 59% 3.5 mph NNW5.6 kmh NNW 3.5 mph5.6 kmh 30.37 in1028.4 mb - 0.00 in0.0 mm 0.00 in0.0 mm
09:20 AM 24.7°F-4.1°C 12.4°F-10.9°C 59% 4.6 mph NW7.4 kmh NW 5.8 mph9.3 kmh 30.37 in1028.4 mb - 0.00 in0.0 mm 0.00 in0.0 mm
09:30 AM 25.2°F-3.8°C 12.8°F-10.7°C 59% 4.6 mph NNW7.4 kmh NNW 5.8 mph9.3 kmh 30.37 in1028.4 mb - 0.00 in0.0 mm 0.00 in0.0 mm
09:40 AM 25.7°F-3.5°C 13.0°F-10.6°C 58% 3.5 mph NNW5.6 kmh NNW 4.6 mph7.4 kmh 30.37 in1028.4 mb - 0.00 in0.0 mm 0.00 in0.0 mm
09:50 AM 26.8°F-2.9°C 13.2°F-10.4°C 56% 2.3 mph N3.7 kmh N 3.5 mph5.6 kmh 30.37 in1028.4 mb - 0.00 in0.0 mm 0.00 in0.0 mm
10:00 AM 27.1°F-2.7°C 12.7°F-10.7°C 54% Calm Calm 4.6 mph7.4 kmh 30.37 in1028.4 mb - 0.00 in0.0 mm 0.00 in0.0 mm
10:10 AM 29.0°F-1.7°C 13.9°F-10.1°C 53% 3.5 mph N5.6 kmh N 3.5 mph5.6 kmh 30.37 in1028.4 mb - 0.00 in0.0 mm 0.00 in0.0 mm
10:20 AM 29.8°F-1.2°C 14.3°F-9.8°C 52% 4.6 mph N7.4 kmh N 5.8 mph9.3 kmh 30.37 in1028.4 mb - 0.00 in0.0 mm 0.00 in0.0 mm
10:30 AM 31.6°F-0.2°C 15.6°F-9.1°C 51% 3.5 mph N5.6 kmh N 3.5 mph5.6 kmh 30.34 in1027.4 mb - 0.00 in0.0 mm 0.00 in0.0 mm
10:40 AM 31.9°F-0.1°C 15.3°F-9.3°C 50% 2.3 mph N3.7 kmh N 5.8 mph9.3 kmh 30.37 in1028.4 mb - 0.00 in0.0 mm 0.00 in0.0 mm